sensor_id;sensor_type;location;lat;lon;timestamp;P1;durP1;ratioP1;P2;durP2;ratioP2
25319;SDS011;13256;49.012;8.610;2023-02-15T00:05:30;50.58;;;19.60;;
25319;SDS011;13256;49.012;8.610;2023-02-15T00:07:58;43.88;;;18.13;;
25319;SDS011;13256;49.012;8.610;2023-02-15T00:10:25;43.45;;;17.20;;
25319;SDS011;13256;49.012;8.610;2023-02-15T00:12:56;42.25;;;18.63;;
25319;SDS011;13256;49.012;8.610;2023-02-15T00:15:24;50.95;;;19.75;;
25319;SDS011;13256;49.012;8.610;2023-02-15T00:17:51;49.67;;;18.77;;
25319;SDS011;13256;49.012;8.610;2023-02-15T00:20:21;49.55;;;19.65;;
25319;SDS011;13256;49.012;8.610;2023-02-15T00:22:47;49.47;;;20.50;;
25319;SDS011;13256;49.012;8.610;2023-02-15T00:25:14;52.80;;;21.17;;
25319;SDS011;13256;49.012;8.610;2023-02-15T00:27:41;49.85;;;19.08;;
25319;SDS011;13256;49.012;8.610;2023-02-15T00:30:09;59.97;;;21.92;;
25319;SDS011;13256;49.012;8.610;2023-02-15T00:32:36;64.80;;;23.67;;
25319;SDS011;13256;49.012;8.610;2023-02-15T00:35:03;72.68;;;25.65;;
25319;SDS011;13256;49.012;8.610;2023-02-15T00:37:33;60.47;;;20.73;;
25319;SDS011;13256;49.012;8.610;2023-02-15T00:40:05;54.72;;;20.60;;
25319;SDS011;13256;49.012;8.610;2023-02-15T00:42:33;63.47;;;20.58;;
25319;SDS011;13256;49.012;8.610;2023-02-15T00:45:04;54.15;;;20.08;;
25319;SDS011;13256;49.012;8.610;2023-02-15T00:47:34;58.33;;;19.13;;
25319;SDS011;13256;49.012;8.610;2023-02-15T00:50:06;50.58;;;19.67;;
25319;SDS011;13256;49.012;8.610;2023-02-15T00:52:34;54.78;;;20.42;;
25319;SDS011;13256;49.012;8.610;2023-02-15T00:55:02;43.70;;;17.83;;
25319;SDS011;13256;49.012;8.610;2023-02-15T00:58:14;53.80;;;19.83;;
25319;SDS011;13256;49.012;8.610;2023-02-15T01:01:13;42.95;;;17.20;;
25319;SDS011;13256;49.012;8.610;2023-02-15T01:03:42;49.95;;;19.42;;
25319;SDS011;13256;49.012;8.610;2023-02-15T01:06:13;47.28;;;18.88;;
25319;SDS011;13256;49.012;8.610;2023-02-15T01:11:43;47.88;;;17.83;;
25319;SDS011;13256;49.012;8.610;2023-02-15T01:14:10;47.25;;;18.38;;
25319;SDS011;13256;49.012;8.610;2023-02-15T01:16:43;50.75;;;19.40;;
25319;SDS011;13256;49.012;8.610;2023-02-15T01:19:11;55.90;;;19.63;;
25319;SDS011;13256;49.012;8.610;2023-02-15T01:21:44;54.70;;;19.48;;
25319;SDS011;13256;49.012;8.610;2023-02-15T01:24:14;52.45;;;19.65;;
25319;SDS011;13256;49.012;8.610;2023-02-15T01:26:44;56.15;;;20.15;;
25319;SDS011;13256;49.012;8.610;2023-02-15T01:29:22;55.35;;;20.65;;
25319;SDS011;13256;49.012;8.610;2023-02-15T01:31:49;47.03;;;17.77;;
25319;SDS011;13256;49.012;8.610;2023-02-15T01:34:16;47.97;;;19.35;;
25319;SDS011;13256;49.012;8.610;2023-02-15T01:36:45;54.95;;;18.90;;
25319;SDS011;13256;49.012;8.610;2023-02-15T01:39:29;56.17;;;20.80;;
25319;SDS011;13256;49.012;8.610;2023-02-15T01:41:57;55.83;;;19.83;;
25319;SDS011;13256;49.012;8.610;2023-02-15T01:50:20;47.63;;;18.73;;
25319;SDS011;13256;49.012;8.610;2023-02-15T01:53:31;50.20;;;19.23;;
25319;SDS011;13256;49.012;8.610;2023-02-15T01:56:17;45.58;;;16.92;;
25319;SDS011;13256;49.012;8.610;2023-02-15T01:59:08;36.38;;;15.77;;
25319;SDS011;13256;49.012;8.610;2023-02-15T02:01:51;37.92;;;15.93;;
25319;SDS011;13256;49.012;8.610;2023-02-15T02:04:48;39.25;;;16.13;;
25319;SDS011;13256;49.012;8.610;2023-02-15T02:07:33;42.60;;;14.88;;
25319;SDS011;13256;49.012;8.610;2023-02-15T02:13:28;47.35;;;17.67;;
25319;SDS011;13256;49.012;8.610;2023-02-15T02:16:16;42.40;;;14.43;;
25319;SDS011;13256;49.012;8.610;2023-02-15T02:19:06;34.03;;;14.20;;
25319;SDS011;13256;49.012;8.610;2023-02-15T02:45:09;36.10;;;11.90;;
25319;SDS011;13256;49.012;8.610;2023-02-15T02:47:56;39.35;;;14.60;;
25319;SDS011;13256;49.012;8.610;2023-02-15T02:50:34;37.42;;;15.85;;
25319;SDS011;13256;49.012;8.610;2023-02-15T02:53:09;41.80;;;14.80;;
25319;SDS011;13256;49.012;8.610;2023-02-15T02:56:18;44.00;;;13.85;;
25319;SDS011;13256;49.012;8.610;2023-02-15T02:59:09;36.03;;;13.20;;
25319;SDS011;13256;49.012;8.610;2023-02-15T03:02:07;33.67;;;14.65;;
25319;SDS011;13256;49.012;8.610;2023-02-15T03:04:49;29.65;;;13.52;;
25319;SDS011;13256;49.012;8.610;2023-02-15T03:07:32;33.95;;;14.30;;
25319;SDS011;13256;49.012;8.610;2023-02-15T03:10:00;39.83;;;14.98;;
25319;SDS011;13256;49.012;8.610;2023-02-15T03:12:34;39.08;;;14.88;;
25319;SDS011;13256;49.012;8.610;2023-02-15T03:17:44;37.33;;;14.73;;
25319;SDS011;13256;49.012;8.610;2023-02-15T03:20:17;35.53;;;13.93;;
25319;SDS011;13256;49.012;8.610;2023-02-15T03:23:01;33.88;;;13.80;;
25319;SDS011;13256;49.012;8.610;2023-02-15T03:28:38;39.95;;;15.35;;
25319;SDS011;13256;49.012;8.610;2023-02-15T03:31:18;35.88;;;14.45;;
25319;SDS011;13256;49.012;8.610;2023-02-15T03:33:58;33.92;;;14.93;;
25319;SDS011;13256;49.012;8.610;2023-02-15T03:37:13;41.65;;;14.25;;
25319;SDS011;13256;49.012;8.610;2023-02-15T03:49:17;30.27;;;13.80;;
25319;SDS011;13256;49.012;8.610;2023-02-15T03:55:21;39.47;;;14.38;;
25319;SDS011;13256;49.012;8.610;2023-02-15T03:57:52;34.53;;;13.70;;
25319;SDS011;13256;49.012;8.610;2023-02-15T04:00:51;35.97;;;13.80;;
25319;SDS011;13256;49.012;8.610;2023-02-15T04:03:54;33.13;;;13.70;;
25319;SDS011;13256;49.012;8.610;2023-02-15T04:06:34;30.30;;;13.13;;
25319;SDS011;13256;49.012;8.610;2023-02-15T04:09:04;30.20;;;13.48;;
25319;SDS011;13256;49.012;8.610;2023-02-15T04:11:58;32.13;;;12.93;;
25319;SDS011;13256;49.012;8.610;2023-02-15T04:14:36;32.63;;;13.73;;
25319;SDS011;13256;49.012;8.610;2023-02-15T04:17:50;30.70;;;12.27;;
25319;SDS011;13256;49.012;8.610;2023-02-15T04:20:27;28.48;;;12.25;;
25319;SDS011;13256;49.012;8.610;2023-02-15T04:23:17;26.50;;;13.00;;
25319;SDS011;13256;49.012;8.610;2023-02-15T04:26:05;26.80;;;12.63;;
25319;SDS011;13256;49.012;8.610;2023-02-15T04:28:32;27.13;;;12.23;;
25319;SDS011;13256;49.012;8.610;2023-02-15T04:34:09;31.25;;;12.50;;
25319;SDS011;13256;49.012;8.610;2023-02-15T04:36:44;28.40;;;12.07;;
25319;SDS011;13256;49.012;8.610;2023-02-15T04:39:54;26.70;;;11.63;;
25319;SDS011;13256;49.012;8.610;2023-02-15T04:42:27;38.50;;;12.90;;
25319;SDS011;13256;49.012;8.610;2023-02-15T04:44:55;27.92;;;12.05;;
25319;SDS011;13256;49.012;8.610;2023-02-15T04:47:23;27.23;;;11.90;;
25319;SDS011;13256;49.012;8.610;2023-02-15T04:49:56;30.88;;;13.45;;
25319;SDS011;13256;49.012;8.610;2023-02-15T04:52:25;31.67;;;13.07;;
25319;SDS011;13256;49.012;8.610;2023-02-15T04:54:52;28.45;;;12.95;;
25319;SDS011;13256;49.012;8.610;2023-02-15T04:57:27;31.33;;;12.80;;
25319;SDS011;13256;49.012;8.610;2023-02-15T04:59:55;29.40;;;11.23;;
25319;SDS011;13256;49.012;8.610;2023-02-15T05:02:44;25.27;;;10.80;;
25319;SDS011;13256;49.012;8.610;2023-02-15T05:05:23;27.42;;;11.35;;
25319;SDS011;13256;49.012;8.610;2023-02-15T05:07:56;28.27;;;12.48;;
25319;SDS011;13256;49.012;8.610;2023-02-15T05:10:27;28.67;;;12.75;;
25319;SDS011;13256;49.012;8.610;2023-02-15T05:12:54;28.45;;;12.50;;
25319;SDS011;13256;49.012;8.610;2023-02-15T05:15:21;24.38;;;11.10;;
25319;SDS011;13256;49.012;8.610;2023-02-15T05:17:50;26.00;;;11.90;;
25319;SDS011;13256;49.012;8.610;2023-02-15T05:20:23;35.65;;;16.27;;
25319;SDS011;13256;49.012;8.610;2023-02-15T05:22:53;36.22;;;14.95;;
25319;SDS011;13256;49.012;8.610;2023-02-15T05:28:42;23.70;;;11.00;;
25319;SDS011;13256;49.012;8.610;2023-02-15T05:31:13;23.73;;;11.13;;
25319;SDS011;13256;49.012;8.610;2023-02-15T05:33:52;22.65;;;10.73;;
25319;SDS011;13256;49.012;8.610;2023-02-15T05:38:55;20.05;;;9.65;;
25319;SDS011;13256;49.012;8.610;2023-02-15T05:41:37;25.10;;;11.30;;
25319;SDS011;13256;49.012;8.610;2023-02-15T05:44:05;24.20;;;10.30;;
25319;SDS011;13256;49.012;8.610;2023-02-15T05:46:35;24.05;;;10.50;;
25319;SDS011;13256;49.012;8.610;2023-02-15T05:49:07;24.63;;;10.65;;
25319;SDS011;13256;49.012;8.610;2023-02-15T05:51:38;27.13;;;11.40;;
25319;SDS011;13256;49.012;8.610;2023-02-15T05:54:05;24.17;;;10.88;;
25319;SDS011;13256;49.012;8.610;2023-02-15T05:56:33;27.60;;;11.05;;
25319;SDS011;13256;49.012;8.610;2023-02-15T05:59:04;30.02;;;11.45;;
25319;SDS011;13256;49.012;8.610;2023-02-15T06:01:35;25.10;;;12.40;;
25319;SDS011;13256;49.012;8.610;2023-02-15T06:04:06;29.17;;;13.40;;
25319;SDS011;13256;49.012;8.610;2023-02-15T06:06:35;25.92;;;11.43;;
25319;SDS011;13256;49.012;8.610;2023-02-15T06:09:05;27.88;;;11.15;;
25319;SDS011;13256;49.012;8.610;2023-02-15T06:11:39;26.23;;;11.25;;
25319;SDS011;13256;49.012;8.610;2023-02-15T06:14:08;24.23;;;11.70;;
25319;SDS011;13256;49.012;8.610;2023-02-15T06:16:35;26.10;;;12.85;;
25319;SDS011;13256;49.012;8.610;2023-02-15T06:19:03;21.63;;;11.07;;
25319;SDS011;13256;49.012;8.610;2023-02-15T06:21:38;25.27;;;11.80;;
25319;SDS011;13256;49.012;8.610;2023-02-15T06:24:12;26.98;;;10.82;;
25319;SDS011;13256;49.012;8.610;2023-02-15T06:26:41;21.98;;;11.15;;
25319;SDS011;13256;49.012;8.610;2023-02-15T06:29:09;20.42;;;10.38;;
25319;SDS011;13256;49.012;8.610;2023-02-15T06:31:37;30.25;;;10.73;;
25319;SDS011;13256;49.012;8.610;2023-02-15T06:34:07;25.10;;;10.05;;
25319;SDS011;13256;49.012;8.610;2023-02-15T06:36:40;24.80;;;10.73;;
25319;SDS011;13256;49.012;8.610;2023-02-15T06:39:08;25.65;;;10.48;;
25319;SDS011;13256;49.012;8.610;2023-02-15T06:41:37;23.70;;;10.23;;
25319;SDS011;13256;49.012;8.610;2023-02-15T06:44:05;21.73;;;10.55;;
25319;SDS011;13256;49.012;8.610;2023-02-15T06:46:36;21.25;;;10.05;;
25319;SDS011;13256;49.012;8.610;2023-02-15T06:49:07;19.77;;;10.00;;
25319;SDS011;13256;49.012;8.610;2023-02-15T06:51:38;19.92;;;10.23;;
25319;SDS011;13256;49.012;8.610;2023-02-15T06:54:10;25.67;;;10.25;;
25319;SDS011;13256;49.012;8.610;2023-02-15T06:56:40;23.25;;;10.65;;
25319;SDS011;13256;49.012;8.610;2023-02-15T06:59:15;27.98;;;12.25;;
25319;SDS011;13256;49.012;8.610;2023-02-15T07:01:45;23.75;;;10.30;;
25319;SDS011;13256;49.012;8.610;2023-02-15T07:04:14;21.27;;;10.27;;
25319;SDS011;13256;49.012;8.610;2023-02-15T07:06:44;27.17;;;10.90;;
25319;SDS011;13256;49.012;8.610;2023-02-15T07:09:12;24.73;;;11.30;;
25319;SDS011;13256;49.012;8.610;2023-02-15T07:14:55;23.77;;;11.57;;
25319;SDS011;13256;49.012;8.610;2023-02-15T07:17:32;21.50;;;10.82;;
25319;SDS011;13256;49.012;8.610;2023-02-15T07:22:43;21.10;;;11.10;;
25319;SDS011;13256;49.012;8.610;2023-02-15T07:25:27;23.20;;;11.73;;
25319;SDS011;13256;49.012;8.610;2023-02-15T07:27:59;23.98;;;11.00;;
25319;SDS011;13256;49.012;8.610;2023-02-15T07:30:28;38.73;;;10.37;;
25319;SDS011;13256;49.012;8.610;2023-02-15T07:33:03;21.17;;;10.50;;
25319;SDS011;13256;49.012;8.610;2023-02-15T07:35:56;19.05;;;10.43;;
25319;SDS011;13256;49.012;8.610;2023-02-15T07:38:25;24.17;;;10.60;;
25319;SDS011;13256;49.012;8.610;2023-02-15T07:41:03;21.60;;;10.40;;
25319;SDS011;13256;49.012;8.610;2023-02-15T07:43:34;22.08;;;10.50;;
25319;SDS011;13256;49.012;8.610;2023-02-15T07:46:07;18.02;;;10.13;;
25319;SDS011;13256;49.012;8.610;2023-02-15T07:48:38;22.17;;;10.02;;
25319;SDS011;13256;49.012;8.610;2023-02-15T07:51:09;21.35;;;10.25;;
25319;SDS011;13256;49.012;8.610;2023-02-15T07:53:40;24.60;;;9.48;;
25319;SDS011;13256;49.012;8.610;2023-02-15T07:56:12;16.83;;;8.85;;
25319;SDS011;13256;49.012;8.610;2023-02-15T07:58:44;20.00;;;10.57;;
25319;SDS011;13256;49.012;8.610;2023-02-15T08:01:26;23.00;;;10.30;;
25319;SDS011;13256;49.012;8.610;2023-02-15T08:03:56;24.10;;;10.50;;
25319;SDS011;13256;49.012;8.610;2023-02-15T08:06:25;20.50;;;10.38;;
25319;SDS011;13256;49.012;8.610;2023-02-15T08:09:08;26.52;;;10.35;;
25319;SDS011;13256;49.012;8.610;2023-02-15T08:11:37;24.70;;;11.60;;
25319;SDS011;13256;49.012;8.610;2023-02-15T08:16:38;27.55;;;10.57;;
25319;SDS011;13256;49.012;8.610;2023-02-15T08:19:07;26.77;;;10.35;;
25319;SDS011;13256;49.012;8.610;2023-02-15T08:21:49;28.08;;;11.00;;
25319;SDS011;13256;49.012;8.610;2023-02-15T08:24:21;24.50;;;10.73;;
25319;SDS011;13256;49.012;8.610;2023-02-15T08:26:54;21.48;;;9.90;;
25319;SDS011;13256;49.012;8.610;2023-02-15T08:29:22;20.58;;;9.88;;
25319;SDS011;13256;49.012;8.610;2023-02-15T08:34:51;18.42;;;9.75;;
25319;SDS011;13256;49.012;8.610;2023-02-15T08:37:18;18.80;;;9.18;;
25319;SDS011;13256;49.012;8.610;2023-02-15T08:39:59;20.65;;;10.75;;
25319;SDS011;13256;49.012;8.610;2023-02-15T08:42:26;25.42;;;11.25;;
25319;SDS011;13256;49.012;8.610;2023-02-15T08:50:28;25.17;;;10.75;;
25319;SDS011;13256;49.012;8.610;2023-02-15T08:59:04;22.90;;;10.32;;
25319;SDS011;13256;49.012;8.610;2023-02-15T09:01:39;18.77;;;9.18;;
25319;SDS011;13256;49.012;8.610;2023-02-15T09:04:09;19.15;;;9.25;;
25319;SDS011;13256;49.012;8.610;2023-02-15T09:06:41;17.13;;;9.23;;
25319;SDS011;13256;49.012;8.610;2023-02-15T09:23:47;16.70;;;8.25;;
25319;SDS011;13256;49.012;8.610;2023-02-15T09:32:36;18.30;;;9.63;;
25319;SDS011;13256;49.012;8.610;2023-02-15T09:35:05;19.85;;;9.00;;
25319;SDS011;13256;49.012;8.610;2023-02-15T09:37:36;20.88;;;10.30;;
25319;SDS011;13256;49.012;8.610;2023-02-15T09:40:03;16.55;;;9.38;;
25319;SDS011;13256;49.012;8.610;2023-02-15T09:42:42;21.08;;;10.40;;
25319;SDS011;13256;49.012;8.610;2023-02-15T09:54:06;20.95;;;9.68;;
25319;SDS011;13256;49.012;8.610;2023-02-15T09:56:52;21.33;;;9.85;;
25319;SDS011;13256;49.012;8.610;2023-02-15T09:59:34;19.60;;;10.27;;
25319;SDS011;13256;49.012;8.610;2023-02-15T10:04:51;22.63;;;10.00;;
25319;SDS011;13256;49.012;8.610;2023-02-15T10:22:56;22.23;;;10.43;;
25319;SDS011;13256;49.012;8.610;2023-02-15T10:25:37;21.33;;;10.60;;
25319;SDS011;13256;49.012;8.610;2023-02-15T10:28:13;19.90;;;10.48;;
25319;SDS011;13256;49.012;8.610;2023-02-15T10:30:53;18.80;;;10.73;;
25319;SDS011;13256;49.012;8.610;2023-02-15T10:40:01;24.92;;;11.27;;
25319;SDS011;13256;49.012;8.610;2023-02-15T10:42:54;24.90;;;12.32;;
25319;SDS011;13256;49.012;8.610;2023-02-15T10:48:30;22.13;;;10.82;;
25319;SDS011;13256;49.012;8.610;2023-02-15T10:51:12;23.95;;;12.15;;
25319;SDS011;13256;49.012;8.610;2023-02-15T11:00:09;23.02;;;11.30;;
25319;SDS011;13256;49.012;8.610;2023-02-15T11:03:21;20.05;;;11.27;;
25319;SDS011;13256;49.012;8.610;2023-02-15T11:08:59;24.90;;;11.23;;
25319;SDS011;13256;49.012;8.610;2023-02-15T11:11:48;26.35;;;13.52;;
25319;SDS011;13256;49.012;8.610;2023-02-15T11:14:20;23.73;;;12.48;;
25319;SDS011;13256;49.012;8.610;2023-02-15T11:17:21;24.50;;;12.52;;
25319;SDS011;13256;49.012;8.610;2023-02-15T11:20:27;24.63;;;12.55;;
25319;SDS011;13256;49.012;8.610;2023-02-15T11:26:40;23.60;;;11.65;;
25319;SDS011;13256;49.012;8.610;2023-02-15T11:29:26;22.52;;;12.80;;
25319;SDS011;13256;49.012;8.610;2023-02-15T11:32:04;25.88;;;12.52;;
25319;SDS011;13256;49.012;8.610;2023-02-15T11:34:52;27.67;;;12.32;;
25319;SDS011;13256;49.012;8.610;2023-02-15T11:40:42;26.88;;;12.93;;
25319;SDS011;13256;49.012;8.610;2023-02-15T11:46:19;18.10;;;10.13;;
25319;SDS011;13256;49.012;8.610;2023-02-15T11:48:49;21.45;;;11.88;;
25319;SDS011;13256;49.012;8.610;2023-02-15T11:51:20;24.08;;;12.23;;
25319;SDS011;13256;49.012;8.610;2023-02-15T11:53:52;26.05;;;13.52;;
25319;SDS011;13256;49.012;8.610;2023-02-15T11:56:24;26.33;;;13.15;;
25319;SDS011;13256;49.012;8.610;2023-02-15T11:59:25;25.40;;;10.93;;
25319;SDS011;13256;49.012;8.610;2023-02-15T12:02:15;21.88;;;11.20;;
25319;SDS011;13256;49.012;8.610;2023-02-15T12:04:47;27.17;;;12.50;;
25319;SDS011;13256;49.012;8.610;2023-02-15T12:07:41;24.38;;;11.15;;
25319;SDS011;13256;49.012;8.610;2023-02-15T12:10:19;19.33;;;10.98;;
25319;SDS011;13256;49.012;8.610;2023-02-15T12:15:57;20.25;;;11.57;;
25319;SDS011;13256;49.012;8.610;2023-02-15T12:18:39;19.55;;;10.80;;
25319;SDS011;13256;49.012;8.610;2023-02-15T12:21:44;23.92;;;10.95;;
25319;SDS011;13256;49.012;8.610;2023-02-15T12:27:05;23.45;;;11.98;;
25319;SDS011;13256;49.012;8.610;2023-02-15T12:33:40;24.35;;;11.38;;
25319;SDS011;13256;49.012;8.610;2023-02-15T12:35:45;23.17;;;12.32;;
25319;SDS011;13256;49.012;8.610;2023-02-15T12:38:21;22.15;;;11.05;;
25319;SDS011;13256;49.012;8.610;2023-02-15T12:43:34;23.27;;;11.10;;
25319;SDS011;13256;49.012;8.610;2023-02-15T12:54:51;24.42;;;12.27;;
25319;SDS011;13256;49.012;8.610;2023-02-15T12:57:23;20.40;;;11.10;;
25319;SDS011;13256;49.012;8.610;2023-02-15T13:02:28;22.20;;;11.53;;
25319;SDS011;13256;49.012;8.610;2023-02-15T13:05:26;26.13;;;11.55;;
25319;SDS011;13256;49.012;8.610;2023-02-15T13:08:09;20.95;;;12.40;;
25319;SDS011;13256;49.012;8.610;2023-02-15T13:11:07;22.42;;;11.68;;
25319;SDS011;13256;49.012;8.610;2023-02-15T13:16:48;21.42;;;10.82;;
25319;SDS011;13256;49.012;8.610;2023-02-15T13:22:19;20.90;;;11.15;;
25319;SDS011;13256;49.012;8.610;2023-02-15T13:24:54;22.10;;;11.90;;
25319;SDS011;13256;49.012;8.610;2023-02-15T13:27:35;22.23;;;11.95;;
25319;SDS011;13256;49.012;8.610;2023-02-15T13:30:24;24.85;;;13.70;;
25319;SDS011;13256;49.012;8.610;2023-02-15T13:33:53;22.95;;;11.25;;
25319;SDS011;13256;49.012;8.610;2023-02-15T13:44:58;25.23;;;11.65;;
25319;SDS011;13256;49.012;8.610;2023-02-15T13:50:36;20.33;;;10.77;;
25319;SDS011;13256;49.012;8.610;2023-02-15T14:09:43;20.73;;;11.48;;
25319;SDS011;13256;49.012;8.610;2023-02-15T14:20:45;27.23;;;12.23;;
25319;SDS011;13256;49.012;8.610;2023-02-15T14:23:35;21.92;;;11.98;;
25319;SDS011;13256;49.012;8.610;2023-02-15T14:26:27;20.73;;;11.93;;
25319;SDS011;13256;49.012;8.610;2023-02-15T14:29:46;19.95;;;11.45;;
25319;SDS011;13256;49.012;8.610;2023-02-15T14:35:17;26.58;;;13.57;;
25319;SDS011;13256;49.012;8.610;2023-02-15T14:46:21;35.22;;;17.20;;
25319;SDS011;13256;49.012;8.610;2023-02-15T14:49:17;21.92;;;12.75;;
25319;SDS011;13256;49.012;8.610;2023-02-15T15:02:21;26.27;;;14.20;;
25319;SDS011;13256;49.012;8.610;2023-02-15T15:08:21;22.42;;;12.15;;
25319;SDS011;13256;49.012;8.610;2023-02-15T15:14:45;22.98;;;12.95;;
25319;SDS011;13256;49.012;8.610;2023-02-15T15:17:08;22.98;;;12.45;;
25319;SDS011;13256;49.012;8.610;2023-02-15T15:22:21;21.88;;;11.75;;
25319;SDS011;13256;49.012;8.610;2023-02-15T15:28:08;21.55;;;12.10;;
25319;SDS011;13256;49.012;8.610;2023-02-15T15:51:32;21.85;;;12.43;;
25319;SDS011;13256;49.012;8.610;2023-02-15T15:54:02;28.30;;;14.15;;
25319;SDS011;13256;49.012;8.610;2023-02-15T15:56:52;24.17;;;12.63;;
25319;SDS011;13256;49.012;8.610;2023-02-15T15:59:31;23.42;;;12.63;;
25319;SDS011;13256;49.012;8.610;2023-02-15T16:02:21;24.03;;;13.53;;
25319;SDS011;13256;49.012;8.610;2023-02-15T16:05:14;22.73;;;13.25;;
25319;SDS011;13256;49.012;8.610;2023-02-15T16:07:51;26.25;;;13.05;;
25319;SDS011;13256;49.012;8.610;2023-02-15T16:10:21;22.00;;;12.45;;
25319;SDS011;13256;49.012;8.610;2023-02-15T16:12:55;35.38;;;18.45;;
25319;SDS011;13256;49.012;8.610;2023-02-15T16:15:29;33.85;;;18.42;;
25319;SDS011;13256;49.012;8.610;2023-02-15T16:18:05;33.08;;;17.13;;
25319;SDS011;13256;49.012;8.610;2023-02-15T16:20:35;31.60;;;14.52;;
25319;SDS011;13256;49.012;8.610;2023-02-15T16:23:16;39.28;;;20.42;;
25319;SDS011;13256;49.012;8.610;2023-02-15T16:28:51;30.83;;;14.85;;
25319;SDS011;13256;49.012;8.610;2023-02-15T16:31:22;31.90;;;15.85;;
25319;SDS011;13256;49.012;8.610;2023-02-15T16:33:55;38.22;;;17.50;;
25319;SDS011;13256;49.012;8.610;2023-02-15T16:36:25;27.27;;;13.95;;
25319;SDS011;13256;49.012;8.610;2023-02-15T16:41:28;28.80;;;14.75;;
25319;SDS011;13256;49.012;8.610;2023-02-15T16:44:00;28.85;;;15.75;;
25319;SDS011;13256;49.012;8.610;2023-02-15T16:46:51;27.30;;;13.95;;
25319;SDS011;13256;49.012;8.610;2023-02-15T16:49:22;45.03;;;19.73;;
25319;SDS011;13256;49.012;8.610;2023-02-15T16:54:43;59.45;;;24.27;;
25319;SDS011;13256;49.012;8.610;2023-02-15T16:57:53;65.90;;;25.42;;
25319;SDS011;13256;49.012;8.610;2023-02-15T17:00:14;48.78;;;20.77;;
25319;SDS011;13256;49.012;8.610;2023-02-15T17:02:53;54.33;;;25.30;;
25319;SDS011;13256;49.012;8.610;2023-02-15T17:05:30;58.88;;;28.33;;
25319;SDS011;13256;49.012;8.610;2023-02-15T17:10:38;50.83;;;24.27;;
25319;SDS011;13256;49.012;8.610;2023-02-15T17:13:11;59.65;;;27.00;;
25319;SDS011;13256;49.012;8.610;2023-02-15T17:16:26;49.38;;;24.17;;
25319;SDS011;13256;49.012;8.610;2023-02-15T17:21:42;35.25;;;18.23;;
25319;SDS011;13256;49.012;8.610;2023-02-15T17:24:24;39.22;;;18.00;;
25319;SDS011;13256;49.012;8.610;2023-02-15T17:27:11;39.00;;;18.67;;
25319;SDS011;13256;49.012;8.610;2023-02-15T17:29:50;33.33;;;16.73;;
25319;SDS011;13256;49.012;8.610;2023-02-15T17:32:27;36.85;;;17.77;;
25319;SDS011;13256;49.012;8.610;2023-02-15T17:40:14;33.95;;;18.48;;
25319;SDS011;13256;49.012;8.610;2023-02-15T17:42:49;29.10;;;17.40;;
25319;SDS011;13256;49.012;8.610;2023-02-15T17:45:19;28.50;;;16.65;;
25319;SDS011;13256;49.012;8.610;2023-02-15T17:47:47;35.90;;;17.08;;
25319;SDS011;13256;49.012;8.610;2023-02-15T17:50:25;36.08;;;17.67;;
25319;SDS011;13256;49.012;8.610;2023-02-15T17:52:54;34.47;;;17.50;;
25319;SDS011;13256;49.012;8.610;2023-02-15T17:55:23;37.38;;;19.85;;
25319;SDS011;13256;49.012;8.610;2023-02-15T17:58:12;36.22;;;17.92;;
25319;SDS011;13256;49.012;8.610;2023-02-15T18:00:46;30.48;;;16.55;;
25319;SDS011;13256;49.012;8.610;2023-02-15T18:03:48;33.42;;;16.67;;
25319;SDS011;13256;49.012;8.610;2023-02-15T18:06:36;33.85;;;17.30;;
25319;SDS011;13256;49.012;8.610;2023-02-15T18:30:32;39.67;;;17.75;;
25319;SDS011;13256;49.012;8.610;2023-02-15T18:33:02;28.60;;;16.42;;
25319;SDS011;13256;49.012;8.610;2023-02-15T18:41:03;36.78;;;17.92;;
25319;SDS011;13256;49.012;8.610;2023-02-15T18:43:32;31.38;;;14.88;;
25319;SDS011;13256;49.012;8.610;2023-02-15T18:46:00;33.10;;;15.75;;
25319;SDS011;13256;49.012;8.610;2023-02-15T18:48:30;28.45;;;14.45;;
25319;SDS011;13256;49.012;8.610;2023-02-15T18:50:58;34.13;;;15.50;;
25319;SDS011;13256;49.012;8.610;2023-02-15T18:53:31;28.35;;;13.90;;
25319;SDS011;13256;49.012;8.610;2023-02-15T18:55:59;23.77;;;12.85;;
25319;SDS011;13256;49.012;8.610;2023-02-15T18:58:26;27.73;;;14.30;;
25319;SDS011;13256;49.012;8.610;2023-02-15T19:03:50;34.88;;;17.80;;
25319;SDS011;13256;49.012;8.610;2023-02-15T19:06:21;37.97;;;16.85;;
25319;SDS011;13256;49.012;8.610;2023-02-15T19:08:50;42.10;;;19.00;;
25319;SDS011;13256;49.012;8.610;2023-02-15T19:11:23;45.35;;;20.40;;
25319;SDS011;13256;49.012;8.610;2023-02-15T19:13:57;44.30;;;19.35;;
25319;SDS011;13256;49.012;8.610;2023-02-15T19:16:31;57.33;;;23.10;;
25319;SDS011;13256;49.012;8.610;2023-02-15T19:19:06;52.92;;;23.08;;
25319;SDS011;13256;49.012;8.610;2023-02-15T19:21:34;52.97;;;22.40;;
25319;SDS011;13256;49.012;8.610;2023-02-15T19:24:08;36.03;;;17.73;;
25319;SDS011;13256;49.012;8.610;2023-02-15T19:27:34;38.75;;;16.08;;
25319;SDS011;13256;49.012;8.610;2023-02-15T19:30:16;38.55;;;16.38;;
25319;SDS011;13256;49.012;8.610;2023-02-15T19:33:12;63.17;;;24.50;;
25319;SDS011;13256;49.012;8.610;2023-02-15T19:35:50;95.20;;;37.75;;
25319;SDS011;13256;49.012;8.610;2023-02-15T19:38:26;88.40;;;36.30;;
25319;SDS011;13256;49.012;8.610;2023-02-15T19:41:00;102.22;;;38.13;;
25319;SDS011;13256;49.012;8.610;2023-02-15T19:43:34;83.95;;;33.45;;
25319;SDS011;13256;49.012;8.610;2023-02-15T19:46:04;65.22;;;26.10;;
25319;SDS011;13256;49.012;8.610;2023-02-15T19:48:32;44.95;;;19.48;;
25319;SDS011;13256;49.012;8.610;2023-02-15T19:51:01;41.67;;;19.60;;
25319;SDS011;13256;49.012;8.610;2023-02-15T19:53:30;43.22;;;20.25;;
25319;SDS011;13256;49.012;8.610;2023-02-15T19:56:01;54.53;;;25.60;;
25319;SDS011;13256;49.012;8.610;2023-02-15T19:58:35;61.73;;;25.60;;
25319;SDS011;13256;49.012;8.610;2023-02-15T20:01:07;45.80;;;21.65;;
25319;SDS011;13256;49.012;8.610;2023-02-15T20:03:36;41.28;;;18.90;;
25319;SDS011;13256;49.012;8.610;2023-02-15T20:06:04;37.53;;;17.38;;
25319;SDS011;13256;49.012;8.610;2023-02-15T20:08:39;38.95;;;17.88;;
25319;SDS011;13256;49.012;8.610;2023-02-15T20:11:09;34.45;;;15.70;;
25319;SDS011;13256;49.012;8.610;2023-02-15T20:13:37;31.48;;;13.75;;
25319;SDS011;13256;49.012;8.610;2023-02-15T20:16:11;29.75;;;14.65;;
25319;SDS011;13256;49.012;8.610;2023-02-15T20:18:38;43.05;;;17.80;;
25319;SDS011;13256;49.012;8.610;2023-02-15T20:24:04;35.42;;;15.23;;
25319;SDS011;13256;49.012;8.610;2023-02-15T20:26:32;41.63;;;19.77;;
25319;SDS011;13256;49.012;8.610;2023-02-15T20:31:39;34.35;;;16.85;;
25319;SDS011;13256;49.012;8.610;2023-02-15T20:34:07;36.75;;;17.77;;
25319;SDS011;13256;49.012;8.610;2023-02-15T20:36:41;39.50;;;17.27;;
25319;SDS011;13256;49.012;8.610;2023-02-15T20:39:14;39.92;;;18.10;;
25319;SDS011;13256;49.012;8.610;2023-02-15T20:42:21;36.72;;;17.65;;
25319;SDS011;13256;49.012;8.610;2023-02-15T20:44:50;40.08;;;17.75;;
25319;SDS011;13256;49.012;8.610;2023-02-15T20:47:20;47.42;;;20.50;;
25319;SDS011;13256;49.012;8.610;2023-02-15T20:49:48;67.32;;;28.70;;
25319;SDS011;13256;49.012;8.610;2023-02-15T20:52:24;71.82;;;34.42;;
25319;SDS011;13256;49.012;8.610;2023-02-15T20:54:51;59.85;;;27.30;;
25319;SDS011;13256;49.012;8.610;2023-02-15T20:57:24;63.28;;;28.55;;